createdAt,value
2023-04-18T00:00:29.299Z,11.96
2023-04-18T00:01:29.451Z,11.97
2023-04-18T00:02:29.927Z,11.99
2023-04-18T00:03:30.479Z,11.97
2023-04-18T00:04:30.376Z,11.97
2023-04-18T00:05:30.727Z,11.94
2023-04-18T00:06:30.858Z,11.93
2023-04-18T00:07:31.199Z,11.94
2023-04-18T00:08:31.436Z,11.93
2023-04-18T00:09:31.851Z,11.93
2023-04-18T00:10:32.133Z,11.96
2023-04-18T00:11:32.528Z,11.90
2023-04-18T00:12:32.676Z,11.93
2023-04-18T00:13:32.937Z,11.89
2023-04-18T00:14:33.387Z,11.90
2023-04-18T00:15:33.505Z,11.90
2023-04-18T00:16:33.831Z,11.90
2023-04-18T00:17:34.376Z,11.90
2023-04-18T00:18:34.443Z,11.93
2023-04-18T00:19:34.792Z,11.93
2023-04-18T00:20:35.013Z,11.86
2023-04-18T00:21:35.288Z,11.85
2023-04-18T00:22:35.605Z,11.86
2023-04-18T00:23:35.907Z,11.85
2023-04-18T00:24:36.291Z,11.83
2023-04-18T00:25:36.449Z,11.82
2023-04-18T00:26:36.827Z,11.82
2023-04-18T00:27:36.934Z,11.80
2023-04-18T00:28:37.223Z,11.75
2023-04-18T00:29:37.564Z,11.72
2023-04-18T00:30:37.974Z,11.74
2023-04-18T00:31:38.220Z,11.71
2023-04-18T00:32:38.536Z,11.70
2023-04-18T00:33:38.668Z,11.67
2023-04-18T00:34:39.076Z,11.67
2023-04-18T00:35:39.333Z,11.62
2023-04-18T00:36:39.559Z,11.59
2023-04-18T00:37:39.904Z,11.62
2023-04-18T00:38:40.223Z,11.59
2023-04-18T00:39:40.542Z,11.61
2023-04-18T00:40:40.941Z,11.54
2023-04-18T00:41:41.106Z,11.50
2023-04-18T00:42:41.436Z,11.50
2023-04-18T00:43:41.981Z,11.49
2023-04-18T00:44:41.920Z,11.49
2023-04-18T00:45:42.246Z,11.47
2023-04-18T00:46:42.497Z,11.46
2023-04-18T00:47:42.834Z,11.46
2023-04-18T00:48:43.221Z,11.44
2023-04-18T00:49:43.303Z,11.46
2023-04-18T00:50:43.705Z,11.44
2023-04-18T00:51:44.046Z,11.44
2023-04-18T00:52:44.372Z,11.44
2023-04-18T00:53:44.608Z,11.43
2023-04-18T00:54:44.926Z,11.46
2023-04-18T00:55:45.452Z,11.43
2023-04-18T00:56:45.598Z,11.39
2023-04-18T00:57:45.885Z,11.41
2023-04-18T00:58:46.221Z,11.39
2023-04-18T00:59:46.443Z,11.38
2023-04-18T01:00:46.777Z,11.36
2023-04-18T01:01:47.038Z,11.34
2023-04-18T01:02:47.379Z,11.32
2023-04-18T01:03:48.096Z,11.32
2023-04-18T01:04:48.025Z,11.32
2023-04-18T01:05:48.237Z,11.36
2023-04-18T01:06:48.516Z,11.35
2023-04-18T01:07:48.784Z,11.36
2023-04-18T01:08:49.175Z,11.36
2023-04-18T01:09:49.402Z,11.32
2023-04-18T01:10:49.717Z,11.29
2023-04-18T01:11:49.929Z,11.28
2023-04-18T01:12:50.233Z,11.25
2023-04-18T01:13:50.643Z,11.25
2023-04-18T01:14:50.920Z,11.24
2023-04-18T01:15:51.272Z,11.24
2023-04-18T01:16:51.534Z,11.17
2023-04-18T01:17:51.867Z,11.13
2023-04-18T01:18:52.131Z,11.13
2023-04-18T01:19:52.430Z,11.13
2023-04-18T01:20:52.845Z,11.11
2023-04-18T01:21:53.129Z,11.13
2023-04-18T01:22:53.390Z,11.10
2023-04-18T01:23:53.753Z,11.06
2023-04-18T01:24:54.098Z,11.06
2023-04-18T01:25:54.405Z,11.03
2023-04-18T01:26:54.734Z,11.02
2023-04-18T01:27:54.964Z,11.02
2023-04-18T01:28:55.290Z,11.01
2023-04-18T01:29:55.602Z,10.95
2023-04-18T01:30:55.956Z,10.91
2023-04-18T01:31:56.224Z,10.92
2023-04-18T01:32:56.566Z,10.86
2023-04-18T01:33:56.794Z,10.86
2023-04-18T01:34:57.107Z,10.88
2023-04-18T01:35:57.467Z,10.84
2023-04-18T01:36:57.787Z,10.81
2023-04-18T01:37:58.096Z,10.77
2023-04-18T01:38:58.405Z,10.77
2023-04-18T01:39:58.674Z,10.73
2023-04-18T01:40:59.025Z,10.76
2023-04-18T01:41:59.481Z,10.76
2023-04-18T01:42:59.609Z,10.73
2023-04-18T01:43:59.926Z,10.74
2023-04-18T01:45:00.692Z,10.73
2023-04-18T01:46:00.521Z,10.73
2023-04-18T01:47:00.919Z,10.76
2023-04-18T01:48:01.062Z,10.71
2023-04-18T01:49:01.420Z,10.73
2023-04-18T01:50:01.584Z,10.66
2023-04-18T01:51:01.857Z,10.66
2023-04-18T01:52:02.691Z,10.66
2023-04-18T01:53:02.493Z,10.73
2023-04-18T01:54:02.798Z,10.74
2023-04-18T01:55:03.160Z,10.77
2023-04-18T01:56:03.502Z,10.80
2023-04-18T01:57:03.740Z,10.81
2023-04-18T01:58:04.070Z,10.80
2023-04-18T01:59:04.368Z,10.81
2023-04-18T02:00:04.686Z,10.76
2023-04-18T02:01:04.959Z,10.68
2023-04-18T02:02:05.298Z,10.60
2023-04-18T02:03:05.600Z,10.56
2023-04-18T02:04:05.892Z,10.59
2023-04-18T02:05:06.023Z,10.60
2023-04-18T02:06:06.274Z,10.59
2023-04-18T02:07:07.060Z,10.60
2023-04-18T02:08:06.892Z,10.62
2023-04-18T02:09:07.252Z,10.63
2023-04-18T02:10:07.522Z,10.63
2023-04-18T02:11:07.920Z,10.60
2023-04-18T02:12:08.154Z,10.56
2023-04-18T02:13:08.635Z,10.53
2023-04-18T02:14:08.747Z,10.51
2023-04-18T02:15:09.078Z,10.47
2023-04-18T02:16:09.459Z,10.51
2023-04-18T02:17:09.874Z,10.46
2023-04-18T02:18:10.008Z,10.51
2023-04-18T02:19:10.319Z,10.47
2023-04-18T02:20:10.577Z,10.51
2023-04-18T02:21:10.900Z,10.52
2023-04-18T02:22:11.299Z,10.53
2023-04-18T02:23:11.469Z,10.51
2023-04-18T02:24:12.046Z,10.52
2023-04-18T02:25:12.136Z,10.52
2023-04-18T02:26:12.407Z,10.52
2023-04-18T02:27:12.754Z,10.51
2023-04-18T02:28:13.030Z,10.40
2023-04-18T02:29:13.381Z,10.44
2023-04-18T02:30:13.602Z,10.44
2023-04-18T02:31:14.041Z,10.36
2023-04-18T02:32:14.165Z,10.32
2023-04-18T02:33:14.487Z,10.34
2023-04-18T02:34:14.907Z,10.37
2023-04-18T02:35:15.100Z,10.37
2023-04-18T02:36:15.395Z,10.34
2023-04-18T02:37:15.686Z,10.32
2023-04-18T02:38:16.438Z,10.32
2023-04-18T02:39:16.273Z,10.33
2023-04-18T02:40:16.587Z,10.33
2023-04-18T02:41:16.984Z,10.28
2023-04-18T02:42:17.146Z,10.28
2023-04-18T02:43:17.470Z,10.32
2023-04-18T02:44:17.864Z,10.32
2023-04-18T02:45:18.109Z,10.34
2023-04-18T02:46:18.474Z,10.32
2023-04-18T02:47:18.691Z,10.32
2023-04-18T02:48:19.049Z,10.33
2023-04-18T02:49:19.271Z,10.33
2023-04-18T02:50:19.536Z,10.28
2023-04-18T02:51:19.801Z,10.30
2023-04-18T02:52:20.509Z,10.30
2023-04-18T02:53:20.516Z,10.32
2023-04-18T02:54:20.770Z,10.33
2023-04-18T02:55:21.147Z,10.28
2023-04-18T02:56:21.403Z,10.25
2023-04-18T02:57:21.712Z,10.22
2023-04-18T02:58:22.059Z,10.19
2023-04-18T02:59:22.327Z,10.22
2023-04-18T03:00:22.668Z,10.22
2023-04-18T03:01:22.998Z,10.22
2023-04-18T03:02:23.359Z,10.19
2023-04-18T03:03:23.567Z,10.19
2023-04-18T03:04:23.868Z,10.18
2023-04-18T03:05:24.218Z,10.17
2023-04-18T03:06:24.546Z,10.17
2023-04-18T03:07:24.709Z,10.18
2023-04-18T03:08:25.000Z,10.17
2023-04-18T03:09:25.340Z,10.19
2023-04-18T03:10:25.732Z,10.19
2023-04-18T03:11:25.963Z,10.19
2023-04-18T03:12:26.181Z,10.18
2023-04-18T03:13:26.551Z,10.17
2023-04-18T03:14:26.852Z,10.15
2023-04-18T03:15:27.163Z,10.15
2023-04-18T03:16:27.603Z,10.18
2023-04-18T03:17:27.899Z,10.15
2023-04-18T03:18:27.992Z,10.15
2023-04-18T03:19:28.335Z,10.18
2023-04-18T03:20:28.628Z,10.19
2023-04-18T03:21:28.963Z,10.19
2023-04-18T03:22:29.145Z,10.19
2023-04-18T03:23:29.478Z,10.21
2023-04-18T03:24:29.725Z,10.24
2023-04-18T03:25:30.054Z,10.26
2023-04-18T03:26:30.408Z,10.26
2023-04-18T03:27:30.678Z,10.30
2023-04-18T03:28:31.131Z,10.25
2023-04-18T03:29:31.242Z,10.25
2023-04-18T03:30:31.720Z,10.30
2023-04-18T03:31:31.926Z,10.26
2023-04-18T03:32:32.307Z,10.30
2023-04-18T03:33:32.522Z,10.32
2023-04-18T03:34:32.771Z,10.26
2023-04-18T03:35:33.191Z,10.21
2023-04-18T03:36:33.342Z,10.19
2023-04-18T03:37:33.693Z,10.18
2023-04-18T03:38:33.960Z,10.19
2023-04-18T03:39:34.249Z,10.21
2023-04-18T03:40:34.528Z,10.18
2023-04-18T03:41:34.790Z,10.14
2023-04-18T03:42:35.110Z,10.09
2023-04-18T03:43:35.406Z,10.04
2023-04-18T03:44:35.816Z,9.99
2023-04-18T03:45:36.005Z,10.01
2023-04-18T03:46:36.343Z,10.04
2023-04-18T03:47:36.646Z,10.03
2023-04-18T03:48:36.903Z,10.04
2023-04-18T03:49:37.318Z,10.01
2023-04-18T03:50:37.975Z,10.04
2023-04-18T03:51:37.779Z,10.04
2023-04-18T03:52:38.187Z,10.01
2023-04-18T03:53:38.464Z,10.01
2023-04-18T03:54:38.824Z,9.99
2023-04-18T03:55:39.396Z,9.97
2023-04-18T03:56:39.367Z,9.96
2023-04-18T03:57:40.829Z,9.94
2023-04-18T03:58:39.872Z,9.94
2023-04-18T03:59:40.586Z,9.88
2023-04-18T04:00:40.554Z,9.88
2023-04-18T04:01:40.719Z,9.88
2023-04-18T04:02:41.008Z,9.88
2023-04-18T04:03:41.397Z,9.86
2023-04-18T04:04:41.576Z,9.88
2023-04-18T04:05:41.761Z,9.83
2023-04-18T04:06:42.148Z,9.81
2023-04-18T04:07:42.355Z,9.75
2023-04-18T04:08:42.632Z,9.76
2023-04-18T04:09:42.887Z,9.70
2023-04-18T04:10:43.091Z,9.71
2023-04-18T04:11:43.429Z,9.67
2023-04-18T04:12:43.750Z,9.63
2023-04-18T04:13:44.088Z,9.64
2023-04-18T04:14:44.318Z,9.66
2023-04-18T04:15:44.666Z,9.64
2023-04-18T04:16:45.033Z,9.57
2023-04-18T04:17:45.213Z,9.53
2023-04-18T04:18:45.541Z,9.53
2023-04-18T04:19:45.905Z,9.53
2023-04-18T04:20:46.282Z,9.56
2023-04-18T04:21:46.443Z,9.57
2023-04-18T04:22:46.664Z,9.57
2023-04-18T04:23:47.006Z,9.57
2023-04-18T04:24:47.275Z,9.56
2023-04-18T04:25:47.636Z,9.52
2023-04-18T04:26:47.935Z,9.56
2023-04-18T04:27:48.275Z,9.57
2023-04-18T04:28:48.545Z,9.53
2023-04-18T04:29:48.906Z,9.53
2023-04-18T04:30:49.207Z,9.52
2023-04-18T04:31:49.434Z,9.49
2023-04-18T04:32:49.801Z,9.45
2023-04-18T04:33:49.961Z,9.45
2023-04-18T04:34:50.319Z,9.42
2023-04-18T04:35:50.542Z,9.31
2023-04-18T04:36:50.746Z,9.24
2023-04-18T04:37:51.149Z,9.15
2023-04-18T04:38:51.473Z,9.18
2023-04-18T04:39:51.696Z,9.21
2023-04-18T04:40:51.898Z,9.24
2023-04-18T04:41:52.251Z,9.30
2023-04-18T04:42:52.516Z,9.32
2023-04-18T04:43:52.760Z,9.38
2023-04-18T04:44:53.054Z,9.38
2023-04-18T04:45:53.433Z,9.40
2023-04-18T04:46:53.604Z,9.38
2023-04-18T04:47:53.804Z,9.35
2023-04-18T04:48:54.029Z,9.39
2023-04-18T04:49:54.294Z,9.39
2023-04-18T04:50:54.518Z,9.40
2023-04-18T04:51:54.766Z,9.42
2023-04-18T04:52:55.048Z,9.43
2023-04-18T04:53:55.336Z,9.43
2023-04-18T04:54:55.619Z,9.42
2023-04-18T04:55:55.872Z,9.39
2023-04-18T04:56:56.104Z,9.38
2023-04-18T04:57:56.486Z,9.40
2023-04-18T04:58:56.897Z,9.40
2023-04-18T04:59:56.962Z,9.39
2023-04-18T05:00:57.311Z,9.34
2023-04-18T05:01:57.566Z,9.32
2023-04-18T05:02:57.879Z,9.31
2023-04-18T05:03:58.289Z,9.31
2023-04-18T05:04:58.404Z,9.38
2023-04-18T05:05:58.621Z,9.39
2023-04-18T05:06:58.905Z,9.43
2023-04-18T05:07:59.167Z,9.42
2023-04-18T05:08:59.485Z,9.46
2023-04-18T05:09:59.777Z,9.49
2023-04-18T05:10:59.995Z,9.52
2023-04-18T05:12:00.256Z,9.56
2023-04-18T05:13:00.511Z,9.49
2023-04-18T05:14:00.766Z,9.42
2023-04-18T05:15:01.069Z,9.43
2023-04-18T05:16:01.307Z,9.42
2023-04-18T05:17:01.682Z,9.48
2023-04-18T05:18:01.901Z,9.46
2023-04-18T05:19:02.215Z,9.50
2023-04-18T05:20:02.383Z,9.56
2023-04-18T05:21:02.584Z,9.58
2023-04-18T05:22:03.029Z,9.57
2023-04-18T05:23:03.251Z,9.57
2023-04-18T05:24:03.476Z,9.64
2023-04-18T05:25:03.772Z,9.66
2023-04-18T05:26:04.110Z,9.64
2023-04-18T05:27:04.400Z,9.61
2023-04-18T05:28:04.583Z,9.57
2023-04-18T05:29:04.793Z,9.58
2023-04-18T05:30:05.140Z,9.56
2023-04-18T05:31:05.422Z,9.60
2023-04-18T05:32:05.675Z,9.61
2023-04-18T05:33:05.935Z,9.67
2023-04-18T05:34:06.287Z,9.68
2023-04-18T05:35:06.535Z,9.64
2023-04-18T05:36:07.025Z,9.68
2023-04-18T05:37:07.339Z,9.68
2023-04-18T05:38:07.630Z,9.68
2023-04-18T05:39:07.823Z,9.73
2023-04-18T05:40:08.103Z,9.68
2023-04-18T05:41:08.362Z,9.63
2023-04-18T05:42:08.662Z,9.52
2023-04-18T05:43:08.974Z,9.48
2023-04-18T05:44:09.149Z,9.50
2023-04-18T05:45:09.389Z,9.50
2023-04-18T05:46:09.663Z,9.49
2023-04-18T05:47:09.930Z,9.57
2023-04-18T05:48:10.410Z,9.60
2023-04-18T05:49:10.483Z,9.63
2023-04-18T05:50:10.768Z,9.67
2023-04-18T05:51:11.694Z,9.70
2023-04-18T05:52:11.341Z,9.76
2023-04-18T05:53:11.660Z,9.75
2023-04-18T05:54:12.392Z,9.70
2023-04-18T05:55:12.257Z,9.71
2023-04-18T05:56:12.612Z,9.70
2023-04-18T05:57:12.788Z,9.73
2023-04-18T05:58:13.186Z,9.76
2023-04-18T05:59:13.508Z,9.81
2023-04-18T06:00:13.762Z,9.82
2023-04-18T06:01:13.932Z,9.83
2023-04-18T06:02:14.487Z,9.81
2023-04-18T06:03:14.814Z,9.82
2023-04-18T06:04:15.288Z,9.86
2023-04-18T06:05:15.466Z,9.94
2023-04-18T06:06:15.461Z,9.99
2023-04-18T06:07:15.820Z,10.03
2023-04-18T06:08:15.943Z,10.07
2023-04-18T06:09:16.431Z,10.09
2023-04-18T06:10:16.845Z,10.12
2023-04-18T06:11:16.904Z,10.09
2023-04-18T06:12:17.189Z,10.10
2023-04-18T06:13:17.458Z,10.14
2023-04-18T06:14:17.733Z,10.10
2023-04-18T06:15:17.955Z,10.04
2023-04-18T06:16:18.351Z,10.00
2023-04-18T06:17:18.555Z,9.88
2023-04-18T06:18:19.050Z,9.88
2023-04-18T06:19:19.087Z,9.91
2023-04-18T06:20:19.476Z,9.97
2023-04-18T06:21:19.687Z,10.00
2023-04-18T06:22:20.052Z,10.03
2023-04-18T06:23:20.361Z,10.09
2023-04-18T06:24:20.636Z,10.10
2023-04-18T06:25:20.866Z,10.03
2023-04-18T06:26:21.092Z,9.99
2023-04-18T06:27:30.584Z,10.01
2023-04-18T06:28:22.732Z,10.01
2023-04-18T06:29:22.031Z,10.01
2023-04-18T06:30:22.337Z,10.01
2023-04-18T06:31:22.596Z,10.00
2023-04-18T06:32:22.937Z,9.94
2023-04-18T06:33:23.164Z,10.00
2023-04-18T06:34:23.436Z,10.01
2023-04-18T06:35:25.905Z,10.03
2023-04-18T06:36:24.041Z,9.86
2023-04-18T06:37:24.366Z,9.78
2023-04-18T06:38:24.741Z,9.82
2023-04-18T06:39:25.008Z,9.89
2023-04-18T06:40:25.232Z,10.00
2023-04-18T06:41:25.465Z,9.99
2023-04-18T06:42:25.872Z,10.03
2023-04-18T06:43:25.993Z,10.06
2023-04-18T06:44:26.394Z,10.01
2023-04-18T06:45:26.691Z,10.07
2023-04-18T06:46:27.147Z,10.09
2023-04-18T06:47:27.364Z,10.14
2023-04-18T06:48:27.556Z,10.21
2023-04-18T06:49:27.873Z,10.22
2023-04-18T06:50:28.362Z,10.24
2023-04-18T06:51:28.488Z,10.30
2023-04-18T06:52:28.799Z,10.28
2023-04-18T06:53:29.049Z,10.28
2023-04-18T06:54:29.409Z,10.25
2023-04-18T06:55:29.645Z,10.32
2023-04-18T06:56:29.887Z,10.37
2023-04-18T06:57:30.144Z,10.40
2023-04-18T06:58:30.509Z,10.34
2023-04-18T06:59:30.697Z,10.21
2023-04-18T07:00:30.974Z,10.14
2023-04-18T07:01:31.384Z,10.14
2023-04-18T07:02:31.546Z,10.07
2023-04-18T07:03:31.806Z,9.93
2023-04-18T07:04:32.514Z,9.85
2023-04-18T07:05:32.275Z,9.82
2023-04-18T07:06:32.578Z,9.86
2023-04-18T07:07:32.796Z,9.85
2023-04-18T07:08:33.189Z,9.94
2023-04-18T07:09:33.361Z,9.96
2023-04-18T07:10:33.706Z,9.94
2023-04-18T07:11:34.085Z,10.00
2023-04-18T07:12:34.185Z,10.06
2023-04-18T07:13:34.542Z,10.07
2023-04-18T07:14:34.717Z,10.15
2023-04-18T07:15:35.410Z,10.15
2023-04-18T07:16:35.341Z,10.19
2023-04-18T07:17:35.726Z,10.22
2023-04-18T07:18:38.375Z,10.28
2023-04-18T07:19:36.261Z,10.34
2023-04-18T07:20:36.568Z,10.36
2023-04-18T07:21:36.800Z,10.39
2023-04-18T07:22:37.509Z,10.39
2023-04-18T07:23:37.430Z,10.40
2023-04-18T07:24:37.803Z,10.43
2023-04-18T07:25:37.978Z,10.53
2023-04-18T07:26:38.331Z,10.62
2023-04-18T07:27:38.708Z,10.63
2023-04-18T07:28:38.959Z,10.62
2023-04-18T07:29:39.305Z,10.53
2023-04-18T07:30:39.473Z,10.55
2023-04-18T07:31:39.711Z,10.55
2023-04-18T07:32:40.716Z,10.56
2023-04-18T07:33:40.442Z,10.56
2023-04-18T07:34:40.555Z,10.56
2023-04-18T07:35:41.236Z,10.63
2023-04-18T07:36:41.274Z,10.73
2023-04-18T07:37:41.326Z,10.78
2023-04-18T07:38:41.581Z,10.81
2023-04-18T07:39:41.945Z,10.91
2023-04-18T07:40:42.214Z,10.81
2023-04-18T07:41:42.515Z,10.76
2023-04-18T07:42:42.836Z,10.77
2023-04-18T07:43:43.055Z,10.78
2023-04-18T07:44:43.398Z,10.83
2023-04-18T07:45:43.633Z,10.84
2023-04-18T07:46:43.950Z,10.92
2023-04-18T07:47:44.274Z,11.01
2023-04-18T07:48:44.512Z,11.09
2023-04-18T07:49:44.854Z,11.20
2023-04-18T07:50:45.063Z,11.29
2023-04-18T07:51:45.308Z,11.34
2023-04-18T07:52:45.608Z,11.35
2023-04-18T07:53:45.867Z,11.28
2023-04-18T07:54:46.212Z,11.28
2023-04-18T07:55:46.413Z,11.34
2023-04-18T07:56:46.662Z,11.38
2023-04-18T07:57:47.541Z,11.38
2023-04-18T07:58:47.162Z,11.39
2023-04-18T07:59:47.378Z,11.39
2023-04-18T08:00:47.793Z,11.49
2023-04-18T08:01:47.863Z,11.52
2023-04-18T08:02:48.220Z,11.49
2023-04-18T08:03:48.551Z,11.46
2023-04-18T08:04:48.775Z,11.46
2023-04-18T08:05:48.967Z,11.27
2023-04-18T08:06:49.271Z,11.31
2023-04-18T08:07:49.555Z,11.28
2023-04-18T08:08:49.896Z,11.27
2023-04-18T08:09:50.075Z,11.31
2023-04-18T08:10:50.330Z,11.19
2023-04-18T08:11:50.696Z,11.07
2023-04-18T08:12:50.934Z,11.11
2023-04-18T08:13:51.281Z,11.17
2023-04-18T08:14:51.473Z,11.21
2023-04-18T08:15:51.800Z,11.27
2023-04-18T08:16:52.022Z,11.34
2023-04-18T08:17:52.374Z,11.41
2023-04-18T08:18:52.612Z,11.47
2023-04-18T08:19:52.917Z,11.49
2023-04-18T08:20:53.153Z,11.56
2023-04-18T08:21:53.546Z,11.54
2023-04-18T08:23:06.335Z,11.61
2023-04-18T08:23:55.097Z,11.68
2023-04-18T08:25:04.353Z,11.72
2023-04-18T08:25:55.726Z,11.78
2023-04-18T08:26:55.027Z,11.86
2023-04-18T08:27:55.381Z,11.94
2023-04-18T08:28:55.642Z,12.20
2023-04-18T08:29:55.911Z,12.42
2023-04-18T08:30:56.206Z,12.82
2023-04-18T08:31:56.529Z,13.06
2023-04-18T08:32:56.777Z,13.30
2023-04-18T08:33:57.023Z,13.43
2023-04-18T08:34:57.241Z,13.95
2023-04-18T08:35:57.898Z,14.07
2023-04-18T08:36:57.834Z,14.07
2023-04-18T08:37:58.072Z,13.92
2023-04-18T08:38:58.457Z,13.65
2023-04-18T08:39:58.683Z,13.43
2023-04-18T08:40:59.023Z,13.22
2023-04-18T08:41:59.336Z,13.14
2023-04-18T08:42:59.617Z,13.11
2023-04-18T08:43:59.924Z,12.87
2023-04-18T08:45:00.172Z,12.70
2023-04-18T08:46:00.429Z,12.63
2023-04-18T08:47:00.693Z,12.38
2023-04-18T08:48:01.123Z,12.16
2023-04-18T08:49:01.233Z,12.05
2023-04-18T08:50:01.718Z,12.06
2023-04-18T08:51:01.955Z,11.99
2023-04-18T08:52:02.242Z,11.93
2023-04-18T08:53:02.491Z,11.90
2023-04-18T08:54:02.792Z,11.86
2023-04-18T08:55:03.009Z,11.89
2023-04-18T08:56:03.303Z,11.83
2023-04-18T08:57:03.606Z,11.85
2023-04-18T08:58:03.896Z,11.87
2023-04-18T08:59:04.257Z,11.90
2023-04-18T09:00:04.475Z,11.87
2023-04-18T09:01:04.926Z,11.99
2023-04-18T09:02:05.126Z,12.12
2023-04-18T09:03:05.429Z,12.13
2023-04-18T09:04:05.740Z,12.19
2023-04-18T09:05:05.998Z,12.24
2023-04-18T09:06:06.471Z,12.37
2023-04-18T09:07:06.655Z,13.12
2023-04-18T09:08:06.900Z,13.89
2023-04-18T09:09:07.183Z,14.02
2023-04-18T09:10:07.496Z,14.09
2023-04-18T09:11:08.057Z,14.44
2023-04-18T09:12:08.244Z,15.15
2023-04-18T09:13:08.444Z,15.27
2023-04-18T09:14:08.614Z,15.38
2023-04-18T09:15:09.049Z,15.28
2023-04-18T09:16:09.270Z,15.31
2023-04-18T09:17:09.429Z,15.52
2023-04-18T09:18:09.749Z,15.82
2023-04-18T09:19:10.003Z,15.36
2023-04-18T09:20:10.269Z,15.49
2023-04-18T09:21:10.522Z,15.79
2023-04-18T09:22:10.781Z,15.92
2023-04-18T09:23:11.505Z,15.52
2023-04-18T09:24:11.667Z,15.03
2023-04-18T09:25:11.587Z,14.67
2023-04-18T09:26:11.837Z,14.42
2023-04-18T09:27:12.187Z,14.24
2023-04-18T09:28:12.516Z,14.38
2023-04-18T09:29:13.040Z,14.64
2023-04-18T09:30:13.223Z,15.20
2023-04-18T09:31:13.486Z,14.75
2023-04-18T09:32:13.597Z,14.60
2023-04-18T09:33:14.109Z,14.32
2023-04-18T09:34:14.579Z,14.06
2023-04-18T09:35:15.007Z,13.92
2023-04-18T09:36:14.807Z,13.52
2023-04-18T09:37:15.300Z,13.46
2023-04-18T09:38:15.375Z,13.47
2023-04-18T09:39:15.782Z,13.38
2023-04-18T09:40:15.939Z,13.32
2023-04-18T09:41:16.854Z,13.29
2023-04-18T09:42:16.454Z,13.25
2023-04-18T09:43:17.015Z,13.22
2023-04-18T09:44:17.446Z,13.20
2023-04-18T09:45:17.492Z,13.20
2023-04-18T09:46:17.694Z,13.12
2023-04-18T09:47:17.899Z,13.14
2023-04-18T09:48:18.127Z,13.21
2023-04-18T09:49:18.683Z,13.20
2023-04-18T09:50:18.714Z,13.22
2023-04-18T09:51:19.013Z,13.32
2023-04-18T09:52:19.212Z,13.49
2023-04-18T09:53:20.818Z,13.61
2023-04-18T09:54:19.813Z,13.67
2023-04-18T09:55:20.273Z,13.81
2023-04-18T09:56:20.512Z,13.94
2023-04-18T09:57:20.602Z,14.01
2023-04-18T09:58:20.830Z,14.06
2023-04-18T09:59:21.310Z,14.09
2023-04-18T10:00:21.440Z,14.13
2023-04-18T10:01:21.766Z,14.14
2023-04-18T10:02:22.098Z,13.99
2023-04-18T10:03:22.455Z,13.83
2023-04-18T10:04:22.552Z,13.79
2023-04-18T10:05:23.159Z,13.80
2023-04-18T10:06:23.157Z,13.69
2023-04-18T10:07:23.407Z,13.65
2023-04-18T10:08:23.658Z,13.62
2023-04-18T10:09:23.965Z,13.47
2023-04-18T10:10:24.267Z,13.52
2023-04-18T10:11:24.589Z,13.56
2023-04-18T10:12:24.832Z,13.62
2023-04-18T10:13:25.192Z,13.52
2023-04-18T10:14:26.400Z,13.44
2023-04-18T10:15:25.632Z,13.51
2023-04-18T10:16:25.978Z,13.55
2023-04-18T10:17:27.519Z,13.73
2023-04-18T10:18:26.485Z,13.88
2023-04-18T10:19:26.860Z,13.83
2023-04-18T10:20:26.991Z,13.77
2023-04-18T10:21:27.314Z,13.83
2023-04-18T10:22:27.573Z,13.84
2023-04-18T10:23:28.185Z,14.84
2023-04-18T10:24:28.143Z,16.06
2023-04-18T10:25:28.375Z,16.18
2023-04-18T10:26:28.722Z,17.10
2023-04-18T10:27:28.991Z,17.47
2023-04-18T10:28:29.307Z,17.15
2023-04-18T10:29:29.575Z,16.65
2023-04-18T10:30:29.811Z,16.30
2023-04-18T10:31:30.267Z,16.11
2023-04-18T10:32:30.505Z,15.96
2023-04-18T10:33:32.391Z,15.63
2023-04-18T10:34:31.017Z,15.17
2023-04-18T10:35:31.279Z,14.90
2023-04-18T10:36:31.602Z,14.69
2023-04-18T10:37:31.923Z,14.56
2023-04-18T10:38:32.110Z,14.52
2023-04-18T10:39:32.569Z,14.56
2023-04-18T10:40:32.839Z,14.60
2023-04-18T10:41:33.187Z,15.12
2023-04-18T10:42:33.387Z,15.35
2023-04-18T10:43:33.757Z,15.74
2023-04-18T10:44:34.128Z,15.81
2023-04-18T10:45:34.398Z,16.25
2023-04-18T10:46:34.629Z,16.86
2023-04-18T10:47:35.175Z,16.74
2023-04-18T10:49:35.690Z,16.15
2023-04-18T10:50:35.781Z,16.15
2023-04-18T10:51:36.047Z,16.09
2023-04-18T10:52:36.275Z,15.97
2023-04-18T10:53:36.606Z,15.81
2023-04-18T10:54:36.821Z,15.67
2023-04-18T10:55:37.084Z,15.60
2023-04-18T10:56:37.346Z,15.67
2023-04-18T10:57:37.674Z,15.60
2023-04-18T10:58:38.108Z,15.59
2023-04-18T10:59:38.222Z,15.66
2023-04-18T11:00:38.464Z,15.56
2023-04-18T11:01:38.708Z,15.57
2023-04-18T11:02:39.003Z,15.51
2023-04-18T11:03:39.396Z,15.41
2023-04-18T11:04:39.658Z,15.42
2023-04-18T11:05:39.926Z,15.39
2023-04-18T11:06:41.298Z,15.49
2023-04-18T11:07:40.521Z,16.15
2023-04-18T11:08:40.733Z,16.75
2023-04-18T11:09:41.034Z,17.06
2023-04-18T11:10:41.301Z,17.38
2023-04-18T11:11:41.571Z,17.47
2023-04-18T11:12:41.786Z,17.87
2023-04-18T11:13:42.196Z,18.07
2023-04-18T11:14:42.424Z,17.88
2023-04-18T11:15:42.680Z,18.28
2023-04-18T11:16:42.967Z,18.34
2023-04-18T11:17:43.217Z,18.47
2023-04-18T11:18:43.462Z,18.42
2023-04-18T11:19:43.724Z,18.25
2023-04-18T11:20:43.990Z,18.37
2023-04-18T11:21:44.313Z,18.84
2023-04-18T11:22:44.654Z,19.47
2023-04-18T11:23:44.867Z,19.87
2023-04-18T11:24:45.079Z,20.35
2023-04-18T11:25:45.461Z,20.95
2023-04-18T11:26:45.701Z,21.51
2023-04-18T11:27:46.017Z,22.06
2023-04-18T11:28:46.218Z,22.13
2023-04-18T11:29:46.563Z,22.23
2023-04-18T11:30:46.965Z,22.27
2023-04-18T11:31:47.217Z,22.39
2023-04-18T11:32:47.479Z,22.49
2023-04-18T11:33:47.757Z,22.16
2023-04-18T11:34:47.997Z,21.50
2023-04-18T11:35:48.249Z,21.01
2023-04-18T11:36:48.517Z,20.90
2023-04-18T11:37:48.788Z,20.98
2023-04-18T11:38:49.061Z,21.29
2023-04-18T11:39:49.379Z,21.13
2023-04-18T11:40:49.635Z,20.66
2023-04-18T11:41:49.850Z,20.64
2023-04-18T11:42:50.110Z,20.21
2023-04-18T11:43:50.446Z,19.60
2023-04-18T11:44:50.692Z,19.51
2023-04-18T11:45:51.052Z,19.73
2023-04-18T11:46:51.210Z,19.42
2023-04-18T11:47:51.624Z,19.35
2023-04-18T11:48:51.849Z,19.02
2023-04-18T11:49:52.155Z,18.82
2023-04-18T11:50:52.355Z,18.83
2023-04-18T11:51:52.742Z,19.20
2023-04-18T11:52:53.040Z,19.48
2023-04-18T11:53:53.517Z,18.99
2023-04-18T11:54:53.606Z,19.25
2023-04-18T11:55:53.981Z,19.46
2023-04-18T11:56:54.204Z,19.58
2023-04-18T11:57:54.626Z,19.66
2023-04-18T11:58:54.864Z,19.76
2023-04-18T11:59:55.079Z,19.57
2023-04-18T12:00:55.481Z,19.21
2023-04-18T12:01:58.764Z,19.20
2023-04-18T12:02:55.980Z,18.92
2023-04-18T12:03:56.379Z,18.67
2023-04-18T12:04:56.908Z,18.44
2023-04-18T12:05:56.915Z,18.17
2023-04-18T12:06:57.109Z,17.94
2023-04-18T12:07:57.429Z,17.78
2023-04-18T12:08:57.598Z,17.41
2023-04-18T12:09:58.014Z,17.17
2023-04-18T12:10:58.202Z,17.10
2023-04-18T12:11:58.642Z,16.95
2023-04-18T12:12:58.824Z,16.74
2023-04-18T12:13:59.178Z,16.58
2023-04-18T12:14:59.418Z,16.56
2023-04-18T12:15:59.782Z,16.62
2023-04-18T12:16:59.990Z,16.80
2023-04-18T12:18:00.355Z,16.75
2023-04-18T12:19:00.527Z,16.59
2023-04-18T12:20:00.939Z,16.41
2023-04-18T12:21:01.082Z,16.40
2023-04-18T12:22:01.461Z,16.34
2023-04-18T12:23:01.642Z,16.33
2023-04-18T12:24:02.168Z,16.27
2023-04-18T12:25:02.256Z,16.22
2023-04-18T12:26:02.509Z,16.06
2023-04-18T12:27:02.732Z,16.01
2023-04-18T12:28:02.972Z,15.97
2023-04-18T12:29:03.191Z,15.97
2023-04-18T12:30:03.574Z,15.93
2023-04-18T12:31:03.852Z,15.88
2023-04-18T12:32:03.994Z,15.75
2023-04-18T12:33:04.402Z,15.81
2023-04-18T12:34:04.627Z,15.78
2023-04-18T12:35:04.885Z,15.78
2023-04-18T12:36:05.153Z,15.64
2023-04-18T12:37:05.391Z,15.59
2023-04-18T12:38:05.600Z,15.61
2023-04-18T12:39:05.981Z,15.56
2023-04-18T12:40:06.187Z,15.54
2023-04-18T12:41:06.660Z,15.57
2023-04-18T12:42:06.908Z,15.51
2023-04-18T12:43:07.083Z,15.52
2023-04-18T12:44:07.324Z,15.51
2023-04-18T12:45:07.598Z,15.56
2023-04-18T12:46:07.821Z,15.60
2023-04-18T12:47:08.264Z,15.49
2023-04-18T12:48:08.410Z,15.35
2023-04-18T12:49:08.754Z,15.43
2023-04-18T12:50:11.248Z,15.56
2023-04-18T12:51:09.220Z,15.64
2023-04-18T12:52:09.615Z,15.79
2023-04-18T12:53:09.799Z,15.86
2023-04-18T12:54:10.044Z,15.96
2023-04-18T12:55:10.299Z,16.03
2023-04-18T12:56:10.548Z,15.96
2023-04-18T12:57:10.950Z,15.93
2023-04-18T12:58:11.070Z,15.97
2023-04-18T12:59:11.498Z,15.99
2023-04-18T13:00:11.743Z,16.06
2023-04-18T13:01:12.122Z,16.07
2023-04-18T13:02:12.761Z,16.12